createdAt,value
2022-10-16T00:00:55.815Z,6.73
2022-10-16T00:02:17.933Z,6.72
2022-10-16T00:03:41.612Z,6.64
2022-10-16T00:05:04.984Z,6.69
2022-10-16T00:06:31.052Z,6.71
2022-10-16T00:07:53.006Z,6.66
2022-10-16T00:09:18.043Z,6.65
2022-10-16T00:10:40.318Z,6.72
2022-10-16T00:12:08.284Z,6.63
2022-10-16T00:13:32.519Z,6.62
2022-10-16T00:14:55.852Z,6.61
2022-10-16T00:16:21.878Z,6.62
2022-10-16T00:17:43.938Z,6.64
2022-10-16T00:19:07.257Z,6.66
2022-10-16T00:20:31.190Z,6.61
2022-10-16T00:22:13.136Z,6.56
2022-10-16T00:23:45.495Z,6.60
2022-10-16T00:25:09.124Z,6.55
2022-10-16T00:26:35.586Z,6.59
2022-10-16T00:27:58.704Z,6.54
2022-10-16T00:29:20.725Z,6.53
2022-10-16T00:30:42.974Z,6.58
2022-10-16T00:32:05.103Z,6.53
2022-10-16T00:33:28.559Z,6.49
2022-10-16T00:34:50.683Z,6.48
2022-10-16T00:36:16.477Z,6.43
2022-10-16T00:37:38.472Z,6.42
2022-10-16T00:39:02.982Z,6.38
2022-10-16T00:40:28.539Z,6.34
2022-10-16T00:41:50.734Z,6.34
2022-10-16T00:43:39.701Z,6.33
2022-10-16T00:45:04.593Z,6.30
2022-10-16T00:46:42.832Z,6.28
2022-10-16T00:49:28.943Z,6.32
2022-10-16T00:50:52.108Z,6.31
2022-10-16T00:52:15.575Z,6.27
2022-10-16T00:53:37.993Z,6.30
2022-10-16T00:55:03.623Z,6.29
2022-10-16T00:56:25.936Z,6.26
2022-10-16T00:57:49.287Z,6.22
2022-10-16T00:59:27.215Z,6.19
2022-10-16T01:00:49.391Z,6.17
2022-10-16T01:02:16.647Z,6.19
2022-10-16T01:03:39.002Z,6.14
2022-10-16T01:05:01.924Z,6.11
2022-10-16T01:06:42.045Z,6.09
2022-10-16T01:08:16.069Z,6.11
2022-10-16T01:09:48.000Z,6.09
2022-10-16T01:11:32.662Z,6.07
2022-10-16T01:13:08.840Z,6.05
2022-10-16T01:14:41.878Z,6.04
2022-10-16T01:16:10.134Z,6.04
2022-10-16T01:17:40.254Z,6.01
2022-10-16T01:19:36.227Z,5.98
2022-10-16T01:21:07.811Z,5.96
2022-10-16T01:22:43.209Z,5.97
2022-10-16T01:24:20.047Z,5.99
2022-10-16T01:26:06.946Z,5.92
2022-10-16T01:27:35.424Z,5.87
2022-10-16T01:29:01.504Z,5.83
2022-10-16T01:30:31.693Z,5.85
2022-10-16T01:32:11.437Z,5.84
2022-10-16T01:33:42.289Z,5.81
2022-10-16T01:35:10.633Z,5.79
2022-10-16T01:36:43.100Z,5.75
2022-10-16T01:38:38.863Z,5.73
2022-10-16T01:40:03.808Z,5.76
2022-10-16T01:41:31.610Z,5.76
2022-10-16T01:43:02.270Z,5.73
2022-10-16T01:44:29.228Z,5.72
2022-10-16T01:45:55.010Z,5.67
2022-10-16T01:47:18.959Z,5.67
2022-10-16T01:48:42.734Z,5.68
2022-10-16T01:50:07.420Z,5.70
2022-10-16T01:51:31.429Z,5.67
2022-10-16T01:52:58.509Z,5.71
2022-10-16T01:54:24.850Z,5.71
2022-10-16T01:55:55.519Z,5.69
2022-10-16T01:57:22.317Z,5.71
2022-10-16T01:58:56.899Z,5.70
2022-10-16T02:00:21.499Z,5.70
2022-10-16T02:01:50.918Z,5.66
2022-10-16T02:03:15.803Z,5.70
2022-10-16T02:04:54.351Z,5.71
2022-10-16T02:06:16.286Z,5.69
2022-10-16T02:07:38.233Z,5.70
2022-10-16T02:09:01.050Z,5.69
2022-10-16T02:10:26.626Z,5.70
2022-10-16T02:11:52.866Z,5.69
2022-10-16T02:13:24.976Z,5.71
2022-10-16T02:14:48.869Z,5.71
2022-10-16T02:16:13.618Z,5.68
2022-10-16T02:17:37.285Z,5.69
2022-10-16T02:19:00.693Z,5.67
2022-10-16T02:20:28.761Z,5.71
2022-10-16T02:21:56.688Z,5.64
2022-10-16T02:23:30.824Z,5.63
2022-10-16T02:25:00.531Z,5.64
2022-10-16T02:26:51.887Z,5.66
2022-10-16T02:28:25.965Z,5.67
2022-10-16T02:29:53.487Z,5.66
2022-10-16T02:31:26.429Z,5.61
2022-10-16T02:32:50.210Z,5.59
2022-10-16T02:34:13.918Z,5.63
2022-10-16T02:35:37.011Z,5.57
2022-10-16T02:37:02.120Z,5.58
2022-10-16T02:38:27.300Z,5.61
2022-10-16T02:39:50.043Z,5.64
2022-10-16T02:41:13.332Z,5.59
2022-10-16T02:42:40.877Z,5.60
2022-10-16T02:44:02.900Z,5.57
2022-10-16T02:45:26.316Z,5.60
2022-10-16T02:46:48.579Z,5.59
2022-10-16T02:48:10.872Z,5.58
2022-10-16T02:49:32.845Z,5.52
2022-10-16T02:50:54.888Z,5.54
2022-10-16T02:52:17.009Z,5.51
2022-10-16T02:53:38.982Z,5.43
2022-10-16T02:55:01.168Z,5.45
2022-10-16T02:56:26.542Z,5.44
2022-10-16T02:57:50.824Z,5.39
2022-10-16T02:59:12.955Z,5.47
2022-10-16T03:00:35.031Z,5.44
2022-10-16T03:01:57.818Z,5.48
2022-10-16T03:03:21.281Z,5.49
2022-10-16T03:04:43.889Z,5.41
2022-10-16T03:06:09.560Z,5.42
2022-10-16T03:07:34.395Z,5.44
2022-10-16T03:08:58.848Z,5.41
2022-10-16T03:10:20.919Z,5.44
2022-10-16T03:11:42.978Z,5.44
2022-10-16T03:13:05.742Z,5.42
2022-10-16T03:15:56.126Z,5.45
2022-10-16T03:17:18.970Z,5.43
2022-10-16T03:18:44.167Z,5.39
2022-10-16T03:20:06.518Z,5.34
2022-10-16T03:21:29.749Z,5.30
2022-10-16T03:22:51.713Z,5.30
2022-10-16T03:24:14.047Z,5.28
2022-10-16T03:25:36.171Z,5.28
2022-10-16T03:26:58.700Z,5.33
2022-10-16T03:28:20.825Z,5.34
2022-10-16T03:29:42.885Z,5.32
2022-10-16T03:31:05.091Z,5.30
2022-10-16T03:32:28.259Z,5.28
2022-10-16T03:33:50.687Z,5.29
2022-10-16T03:35:12.849Z,5.30
2022-10-16T03:36:37.446Z,5.34
2022-10-16T03:38:00.480Z,5.27
2022-10-16T03:39:34.891Z,5.31
2022-10-16T03:40:57.038Z,5.32
2022-10-16T03:42:19.797Z,5.26
2022-10-16T03:43:43.398Z,5.24
2022-10-16T03:45:06.064Z,5.26
2022-10-16T03:46:28.901Z,5.20
2022-10-16T03:47:50.971Z,5.25
2022-10-16T03:49:13.129Z,5.25
2022-10-16T03:50:35.153Z,5.22
2022-10-16T03:51:57.305Z,5.19
2022-10-16T03:53:19.567Z,5.16
2022-10-16T03:54:44.614Z,5.23
2022-10-16T03:56:06.992Z,5.20
2022-10-16T03:57:29.775Z,5.14
2022-10-16T03:58:53.551Z,5.16
2022-10-16T04:00:17.969Z,5.06
2022-10-16T04:01:40.075Z,5.06
2022-10-16T04:03:02.226Z,5.13
2022-10-16T04:04:24.197Z,5.08
2022-10-16T04:05:48.862Z,5.07
2022-10-16T04:07:11.221Z,5.08
2022-10-16T04:08:37.003Z,4.99
2022-10-16T04:10:00.037Z,5.03
2022-10-16T04:11:22.009Z,4.97
2022-10-16T04:12:44.265Z,5.04
2022-10-16T04:14:07.340Z,5.03
2022-10-16T04:15:29.715Z,4.97
2022-10-16T04:16:52.646Z,5.03
2022-10-16T04:18:15.240Z,5.04
2022-10-16T04:19:37.151Z,5.10
2022-10-16T04:21:04.356Z,5.09
2022-10-16T04:22:29.099Z,5.09
2022-10-16T04:23:51.107Z,5.14
2022-10-16T04:25:13.437Z,5.21
2022-10-16T04:26:35.433Z,5.16
2022-10-16T04:27:57.726Z,5.13
2022-10-16T04:29:19.770Z,5.08
2022-10-16T04:30:42.040Z,5.18
2022-10-16T04:32:04.103Z,5.23
2022-10-16T04:33:26.289Z,5.25
2022-10-16T04:34:48.387Z,5.30
2022-10-16T04:36:10.506Z,5.31
2022-10-16T04:37:32.460Z,5.37
2022-10-16T04:38:55.097Z,5.41
2022-10-16T04:40:17.219Z,5.50
2022-10-16T04:41:39.333Z,5.52
2022-10-16T04:43:01.319Z,5.72
2022-10-16T04:44:23.392Z,6.17
2022-10-16T04:45:46.748Z,6.69
2022-10-16T04:47:10.263Z,7.62
2022-10-16T04:48:33.049Z,8.25
2022-10-16T04:49:55.041Z,9.03
2022-10-16T04:51:17.661Z,9.56
2022-10-16T04:52:43.978Z,10.20
2022-10-16T04:54:05.960Z,10.38
2022-10-16T04:55:29.619Z,10.98
2022-10-16T04:56:53.834Z,10.73
2022-10-16T04:58:15.843Z,10.16
2022-10-16T04:59:38.206Z,9.60
2022-10-16T05:01:00.298Z,9.01
2022-10-16T05:02:24.728Z,8.92
2022-10-16T05:03:49.607Z,8.58
2022-10-16T05:05:11.688Z,8.14
2022-10-16T05:06:34.111Z,8.11
2022-10-16T05:07:56.184Z,7.76
2022-10-16T05:09:18.226Z,7.53
2022-10-16T05:10:42.462Z,7.55
2022-10-16T05:12:04.754Z,7.42
2022-10-16T05:13:27.690Z,7.41
2022-10-16T05:14:52.229Z,7.29
2022-10-16T05:16:14.207Z,7.36
2022-10-16T05:17:42.489Z,7.22
2022-10-16T05:20:48.705Z,7.06
2022-10-16T05:22:11.672Z,7.23
2022-10-16T05:23:33.976Z,7.29
2022-10-16T05:24:57.371Z,7.16
2022-10-16T05:26:19.353Z,7.46
2022-10-16T05:27:41.406Z,7.53
2022-10-16T05:29:04.284Z,7.49
2022-10-16T05:30:26.471Z,7.06
2022-10-16T05:31:51.674Z,7.06
2022-10-16T05:33:14.564Z,7.05
2022-10-16T05:34:36.552Z,7.11
2022-10-16T05:36:04.092Z,6.79
2022-10-16T05:37:28.966Z,6.82
2022-10-16T05:38:52.278Z,6.85
2022-10-16T05:40:15.791Z,6.83
2022-10-16T05:41:39.180Z,6.88
2022-10-16T05:43:01.100Z,6.84
2022-10-16T05:44:23.082Z,6.90
2022-10-16T05:45:45.079Z,6.97
2022-10-16T05:47:07.413Z,6.99
2022-10-16T05:48:29.821Z,7.02
2022-10-16T05:49:52.923Z,7.05
2022-10-16T05:51:16.038Z,7.00
2022-10-16T05:52:38.041Z,7.07
2022-10-16T05:54:02.239Z,6.97
2022-10-16T05:55:24.163Z,7.00
2022-10-16T05:56:46.295Z,7.13
2022-10-16T05:58:10.476Z,6.99
2022-10-16T05:59:33.075Z,6.94
2022-10-16T06:00:59.750Z,7.03
2022-10-16T06:02:22.753Z,7.04
2022-10-16T06:03:45.289Z,7.03
2022-10-16T06:05:07.972Z,7.09
2022-10-16T06:06:32.012Z,7.09
2022-10-16T06:07:53.947Z,7.16
2022-10-16T06:09:18.137Z,7.18
2022-10-16T06:10:40.043Z,7.20
2022-10-16T06:12:01.979Z,7.13
2022-10-16T06:13:24.002Z,7.21
2022-10-16T06:14:48.250Z,7.28
2022-10-16T06:16:13.419Z,7.22
2022-10-16T06:17:35.417Z,7.12
2022-10-16T06:18:57.484Z,7.21
2022-10-16T06:20:19.471Z,7.28
2022-10-16T06:21:41.508Z,7.31
2022-10-16T06:23:05.174Z,7.28
2022-10-16T06:24:27.304Z,7.30
2022-10-16T06:25:51.711Z,7.26
2022-10-16T06:27:13.683Z,7.25
2022-10-16T06:28:35.896Z,7.24
2022-10-16T06:29:58.703Z,7.37
2022-10-16T06:31:20.701Z,7.44
2022-10-16T06:32:42.754Z,7.46
2022-10-16T06:34:06.873Z,7.62
2022-10-16T06:35:30.454Z,7.48
2022-10-16T06:36:52.566Z,7.45
2022-10-16T06:38:14.588Z,7.64
2022-10-16T06:39:36.916Z,7.73
2022-10-16T06:40:59.415Z,8.24
2022-10-16T06:42:21.361Z,8.93
2022-10-16T06:43:43.637Z,10.13
2022-10-16T06:45:05.993Z,11.34
2022-10-16T06:46:30.391Z,12.14
2022-10-16T06:47:55.276Z,12.99
2022-10-16T06:49:22.656Z,13.61
2022-10-16T06:50:44.626Z,14.27
2022-10-16T06:52:06.532Z,14.65
2022-10-16T06:53:40.125Z,14.91
2022-10-16T06:55:06.905Z,15.29
2022-10-16T06:56:31.160Z,15.81
2022-10-16T06:57:54.438Z,16.54
2022-10-16T06:59:16.397Z,15.88
2022-10-16T07:00:38.301Z,16.93
2022-10-16T07:02:00.249Z,16.92
2022-10-16T07:03:22.340Z,16.71
2022-10-16T07:04:44.248Z,17.42
2022-10-16T07:06:09.341Z,17.30
2022-10-16T07:07:31.367Z,17.73
2022-10-16T07:08:54.054Z,18.13
2022-10-16T07:10:15.974Z,18.32
2022-10-16T07:11:39.780Z,18.79
2022-10-16T07:13:02.391Z,18.34
2022-10-16T07:14:24.823Z,18.46
2022-10-16T07:15:46.939Z,19.24
2022-10-16T07:17:09.214Z,18.60
2022-10-16T07:18:33.318Z,19.56
2022-10-16T07:19:56.646Z,19.01
2022-10-16T07:21:21.639Z,17.89
2022-10-16T07:22:43.681Z,19.18
2022-10-16T07:24:14.030Z,20.13
2022-10-16T07:25:35.977Z,18.26
2022-10-16T07:26:57.895Z,19.08
2022-10-16T07:28:19.840Z,19.31
2022-10-16T07:29:44.439Z,18.68
2022-10-16T07:31:09.351Z,18.81
2022-10-16T07:32:31.416Z,18.75
2022-10-16T07:33:55.021Z,18.73
2022-10-16T07:35:17.223Z,19.00
2022-10-16T07:36:39.262Z,19.39
2022-10-16T07:38:01.340Z,19.35
2022-10-16T07:39:23.405Z,19.56
2022-10-16T07:40:45.880Z,19.47
2022-10-16T07:42:09.126Z,19.58
2022-10-16T07:43:31.135Z,19.89
2022-10-16T07:44:53.128Z,19.42
2022-10-16T07:46:15.805Z,19.81
2022-10-16T07:47:37.704Z,19.61
2022-10-16T07:48:59.707Z,19.42
2022-10-16T07:50:21.698Z,19.12
2022-10-16T07:51:43.664Z,19.24
2022-10-16T07:53:05.587Z,19.24
2022-10-16T07:54:27.478Z,19.40
2022-10-16T07:55:49.465Z,18.95
2022-10-16T07:57:11.482Z,19.01
2022-10-16T07:58:35.119Z,19.23
2022-10-16T07:59:57.157Z,19.78
2022-10-16T08:01:20.008Z,19.26
2022-10-16T08:02:42.179Z,19.35
2022-10-16T08:05:11.524Z,19.18
2022-10-16T08:06:13.658Z,19.43
2022-10-16T08:07:15.636Z,19.23
2022-10-16T08:08:18.685Z,19.32
2022-10-16T08:09:20.620Z,18.46
2022-10-16T08:10:25.277Z,18.40
2022-10-16T08:11:27.494Z,18.43
2022-10-16T08:12:29.646Z,18.92
2022-10-16T08:13:33.929Z,18.52
2022-10-16T08:14:36.050Z,18.72
2022-10-16T08:15:38.271Z,18.47
2022-10-16T08:16:40.248Z,18.73
2022-10-16T08:17:42.157Z,18.43
2022-10-16T08:18:44.423Z,18.72
2022-10-16T08:19:48.444Z,18.69
2022-10-16T08:21:00.109Z,17.67
2022-10-16T08:22:22.024Z,17.60
2022-10-16T08:23:45.320Z,17.89
2022-10-16T08:25:07.396Z,18.14
2022-10-16T08:26:29.493Z,18.48
2022-10-16T08:27:51.908Z,18.51
2022-10-16T08:29:15.163Z,17.77
2022-10-16T08:30:37.239Z,17.83
2022-10-16T08:31:59.263Z,17.90
2022-10-16T08:33:01.699Z,17.92
2022-10-16T08:34:03.905Z,17.16
2022-10-16T08:35:06.183Z,16.88
2022-10-16T08:36:08.375Z,17.35
2022-10-16T08:37:12.368Z,17.57
2022-10-16T08:38:14.411Z,17.63
2022-10-16T08:39:17.222Z,17.36
2022-10-16T08:40:27.150Z,17.07
2022-10-16T08:41:55.910Z,16.64
2022-10-16T08:43:22.172Z,16.71
2022-10-16T08:45:00.887Z,16.39
2022-10-16T08:46:23.077Z,16.57
2022-10-16T08:47:51.491Z,16.16
2022-10-16T08:49:17.425Z,15.74
2022-10-16T08:50:41.299Z,16.07
2022-10-16T08:52:03.313Z,16.38
2022-10-16T08:53:07.458Z,16.56
2022-10-16T08:54:12.235Z,16.01
2022-10-16T08:55:29.666Z,16.21
2022-10-16T08:56:32.192Z,16.01
2022-10-16T08:57:34.414Z,16.25
2022-10-16T08:58:36.439Z,16.19
2022-10-16T08:59:38.503Z,16.07
2022-10-16T09:00:41.021Z,16.21
2022-10-16T09:01:51.001Z,16.04
2022-10-16T09:03:15.607Z,16.18
2022-10-16T09:04:56.929Z,16.12
2022-10-16T09:06:21.918Z,16.18
2022-10-16T09:07:46.685Z,15.90
2022-10-16T09:09:39.961Z,15.52
2022-10-16T09:11:14.904Z,15.62
2022-10-16T09:12:25.227Z,15.34
2022-10-16T09:13:45.491Z,15.29
2022-10-16T09:15:08.127Z,15.33
2022-10-16T09:16:40.391Z,15.37
2022-10-16T09:18:01.384Z,15.02
2022-10-16T09:19:09.255Z,15.25
2022-10-16T09:20:21.345Z,15.19
2022-10-16T09:21:28.484Z,14.81
2022-10-16T09:22:33.421Z,14.84
2022-10-16T09:23:38.691Z,14.37
2022-10-16T09:24:42.641Z,14.65
2022-10-16T09:25:48.839Z,14.55
2022-10-16T09:26:51.445Z,14.37
2022-10-16T09:27:54.928Z,14.46
2022-10-16T09:28:57.043Z,14.03
2022-10-16T09:30:12.013Z,14.27
2022-10-16T09:31:19.543Z,14.27
2022-10-16T09:32:44.140Z,14.21
2022-10-16T09:34:07.939Z,14.12
2022-10-16T09:36:00.359Z,14.04
2022-10-16T09:37:24.216Z,13.91
2022-10-16T09:38:46.541Z,13.92
2022-10-16T09:40:13.506Z,13.87
2022-10-16T09:41:40.697Z,13.69
2022-10-16T09:42:43.019Z,13.72
2022-10-16T09:43:53.277Z,13.73
2022-10-16T09:44:55.501Z,13.71
2022-10-16T09:45:59.374Z,13.64
2022-10-16T09:47:05.985Z,13.75
2022-10-16T09:48:14.455Z,13.60
2022-10-16T09:49:26.312Z,13.57
2022-10-16T09:50:29.871Z,13.59
2022-10-16T09:51:38.661Z,13.50
2022-10-16T09:53:14.621Z,13.61
2022-10-16T09:54:36.611Z,13.35
2022-10-16T09:56:10.406Z,13.29
2022-10-16T09:57:35.424Z,13.29
2022-10-16T09:59:04.269Z,13.20
2022-10-16T10:00:26.906Z,13.07
2022-10-16T10:01:56.822Z,13.17
2022-10-16T10:02:58.806Z,13.23
2022-10-16T10:04:02.614Z,13.06
2022-10-16T10:05:06.746Z,13.08
2022-10-16T10:06:33.324Z,12.98
2022-10-16T10:07:43.785Z,13.06
2022-10-16T10:09:22.051Z,13.02
2022-10-16T10:10:33.117Z,13.02
2022-10-16T10:11:51.199Z,13.03
2022-10-16T10:12:53.715Z,13.02
2022-10-16T10:14:05.858Z,13.11
2022-10-16T10:15:22.689Z,13.14
2022-10-16T10:16:25.673Z,13.20
2022-10-16T10:17:29.333Z,13.03
2022-10-16T10:18:33.070Z,13.12
2022-10-16T10:19:49.573Z,12.97
2022-10-16T10:21:06.303Z,13.08
2022-10-16T10:22:31.729Z,12.98
2022-10-16T10:23:33.889Z,12.96
2022-10-16T10:24:35.837Z,13.04
2022-10-16T10:26:10.159Z,12.98
2022-10-16T10:27:18.360Z,13.02
2022-10-16T10:28:54.797Z,12.95
2022-10-16T10:30:22.088Z,12.92
2022-10-16T10:31:41.172Z,12.94
2022-10-16T10:32:48.928Z,12.92
2022-10-16T10:34:13.686Z,12.96
2022-10-16T10:35:20.004Z,12.96
2022-10-16T10:36:40.114Z,12.85
2022-10-16T10:38:05.173Z,12.82
2022-10-16T10:39:16.770Z,12.96
2022-10-16T10:40:34.855Z,12.91
2022-10-16T10:41:52.070Z,12.88
2022-10-16T10:43:05.610Z,12.98
2022-10-16T10:44:35.147Z,12.97
2022-10-16T10:45:45.087Z,12.90
2022-10-16T10:46:58.545Z,12.97
2022-10-16T10:48:15.276Z,13.04
2022-10-16T10:49:43.248Z,13.03
2022-10-16T10:50:56.049Z,13.04
2022-10-16T10:52:28.908Z,12.99
2022-10-16T10:53:44.330Z,13.05
2022-10-16T10:55:12.758Z,13.02
2022-10-16T10:56:26.783Z,12.96
2022-10-16T10:58:04.310Z,12.98
2022-10-16T10:59:08.864Z,12.92
2022-10-16T11:00:34.105Z,12.98
2022-10-16T11:01:49.348Z,13.08
2022-10-16T11:03:14.043Z,13.04
2022-10-16T11:04:46.922Z,12.98
2022-10-16T11:05:53.996Z,12.95
2022-10-16T11:07:09.039Z,13.04
2022-10-16T11:08:23.054Z,12.89
2022-10-16T11:09:29.415Z,12.97
2022-10-16T11:10:49.591Z,13.01
2022-10-16T11:11:55.597Z,13.03
2022-10-16T11:13:20.116Z,13.07
2022-10-16T11:14:50.032Z,13.00
2022-10-16T11:15:56.795Z,12.97
2022-10-16T11:17:09.677Z,12.95
2022-10-16T11:18:26.059Z,12.82
2022-10-16T11:19:34.575Z,12.94
2022-10-16T11:20:47.205Z,12.83
2022-10-16T11:22:02.127Z,12.89
2022-10-16T11:23:08.688Z,12.85
2022-10-16T11:24:40.473Z,12.85
2022-10-16T11:25:44.917Z,12.87
2022-10-16T11:26:48.982Z,12.91
2022-10-16T11:28:00.090Z,12.92
2022-10-16T11:29:06.181Z,12.83
2022-10-16T11:30:20.287Z,12.85
2022-10-16T11:31:41.508Z,12.77
2022-10-16T11:33:11.702Z,12.82
2022-10-16T11:34:26.310Z,12.77
2022-10-16T11:35:52.898Z,12.83
2022-10-16T11:37:03.593Z,12.82
2022-10-16T11:38:16.592Z,12.82
2022-10-16T11:39:26.369Z,12.69
2022-10-16T11:40:42.821Z,12.66
2022-10-16T11:41:57.341Z,12.73
2022-10-16T11:43:15.960Z,12.76
2022-10-16T11:44:33.032Z,12.73
2022-10-16T11:45:42.855Z,12.77
2022-10-16T11:47:33.772Z,12.82
2022-10-16T11:48:33.064Z,12.75
2022-10-16T11:49:37.570Z,12.79
2022-10-16T11:50:51.400Z,12.80
2022-10-16T11:51:59.266Z,12.77
2022-10-16T11:53:36.151Z,12.86
2022-10-16T11:54:50.020Z,12.88
2022-10-16T11:55:52.941Z,12.88
2022-10-16T11:57:02.230Z,12.86
2022-10-16T11:58:36.409Z,12.81
2022-10-16T12:00:18.813Z,12.81
2022-10-16T12:01:41.786Z,12.81
2022-10-16T12:03:01.564Z,12.87
2022-10-16T12:04:13.069Z,12.87
2022-10-16T12:06:06.864Z,12.88
2022-10-16T12:07:12.857Z,12.86
2022-10-16T12:08:17.078Z,12.88
2022-10-16T12:09:31.463Z,12.90
2022-10-16T12:11:44.826Z,12.83
2022-10-16T12:12:47.553Z,12.83
2022-10-16T12:13:50.768Z,12.81
2022-10-16T12:15:40.913Z,12.85
2022-10-16T12:16:55.892Z,12.69
2022-10-16T12:17:58.343Z,12.82
2022-10-16T12:19:31.069Z,12.81
2022-10-16T12:20:37.478Z,12.68
2022-10-16T12:21:40.221Z,12.72
2022-10-16T12:22:49.099Z,12.70
2022-10-16T12:23:54.705Z,12.76
2022-10-16T12:24:57.084Z,12.69
2022-10-16T12:26:01.284Z,12.73
2022-10-16T12:27:06.067Z,12.68
2022-10-16T12:28:19.637Z,12.72
2022-10-16T12:29:24.543Z,12.73
2022-10-16T12:30:31.086Z,12.68
2022-10-16T12:31:54.482Z,12.69
2022-10-16T12:33:06.437Z,12.72
2022-10-16T12:34:28.253Z,12.70
2022-10-16T12:35:34.795Z,12.63
2022-10-16T12:36:37.890Z,12.67
2022-10-16T12:37:39.997Z,12.65
2022-10-16T12:38:50.663Z,12.66
2022-10-16T12:39:54.715Z,12.68
2022-10-16T12:40:59.346Z,12.67
2022-10-16T12:42:05.618Z,12.64
2022-10-16T12:43:29.850Z,12.66
2022-10-16T12:44:37.184Z,12.68
2022-10-16T12:45:39.231Z,12.65
2022-10-16T12:46:41.703Z,12.67
2022-10-16T12:47:54.795Z,12.61
2022-10-16T12:49:28.953Z,12.66
2022-10-16T12:50:38.916Z,12.64
2022-10-16T12:51:42.911Z,12.60
2022-10-16T12:52:46.191Z,12.56
2022-10-16T12:54:16.666Z,12.54
2022-10-16T12:55:21.973Z,12.53
2022-10-16T12:56:36.935Z,12.59
2022-10-16T12:58:01.109Z,12.58
2022-10-16T12:59:28.122Z,12.51
2022-10-16T13:00:59.211Z,12.49
2022-10-16T13:02:21.195Z,12.48
2022-10-16T13:03:41.287Z,12.45
2022-10-16T13:05:21.999Z,12.43
2022-10-16T13:06:46.988Z,12.42
2022-10-16T13:08:18.815Z,12.38
2022-10-16T13:09:49.907Z,12.40
2022-10-16T13:10:55.312Z,12.40
2022-10-16T13:12:02.910Z,12.40
2022-10-16T13:13:51.028Z,12.39
2022-10-16T13:15:19.360Z,12.37
2022-10-16T13:16:44.971Z,12.32
2022-10-16T13:17:57.145Z,12.30
2022-10-16T13:19:28.259Z,12.27
2022-10-16T13:20:52.904Z,12.29
2022-10-16T13:22:09.763Z,12.26
2022-10-16T13:23:16.969Z,12.24
2022-10-16T13:24:45.396Z,12.22
2022-10-16T13:26:15.701Z,12.22
2022-10-16T13:27:51.976Z,12.14
2022-10-16T13:29:01.584Z,12.14
2022-10-16T13:30:17.903Z,12.15
2022-10-16T13:31:25.206Z,12.14
2022-10-16T13:32:28.560Z,12.09
2022-10-16T13:33:38.004Z,12.08
2022-10-16T13:34:48.501Z,12.10
2022-10-16T13:35:58.364Z,12.09
2022-10-16T13:37:03.040Z,12.03
2022-10-16T13:38:20.605Z,12.03
2022-10-16T13:39:28.864Z,12.06
2022-10-16T13:40:30.955Z,12.09
2022-10-16T13:41:34.119Z,12.07
2022-10-16T13:42:36.327Z,12.08
2022-10-16T13:43:50.720Z,12.09
2022-10-16T13:44:54.339Z,12.08
2022-10-16T13:46:03.772Z,12.03
2022-10-16T13:47:05.724Z,12.04
2022-10-16T13:48:13.422Z,12.02
2022-10-16T13:49:17.600Z,11.98
2022-10-16T13:50:20.203Z,11.93
2022-10-16T13:52:31.269Z,11.88
2022-10-16T13:53:35.633Z,11.83
2022-10-16T13:54:37.620Z,11.81
2022-10-16T13:55:39.878Z,11.75
2022-10-16T13:56:42.194Z,11.83
2022-10-16T13:57:45.149Z,11.84
2022-10-16T13:58:48.515Z,11.83
2022-10-16T13:59:50.681Z,11.82
2022-10-16T14:01:06.532Z,11.79
2022-10-16T14:02:37.986Z,11.79
2022-10-16T14:03:48.734Z,11.78
2022-10-16T14:04:51.100Z,11.70
2022-10-16T14:05:56.324Z,11.73
2022-10-16T14:06:58.353Z,11.71
2022-10-16T14:08:01.589Z,11.74
2022-10-16T14:09:09.297Z,11.75
2022-10-16T14:10:47.897Z,11.71
2022-10-16T14:11:56.363Z,11.64
2022-10-16T14:13:01.907Z,11.64
2022-10-16T14:14:06.320Z,11.63
2022-10-16T14:15:19.206Z,11.60
2022-10-16T14:16:27.789Z,11.54
2022-10-16T14:17:33.978Z,11.58
2022-10-16T14:18:38.737Z,11.57
2022-10-16T14:19:50.475Z,11.55
2022-10-16T14:21:00.868Z,11.49
2022-10-16T14:22:24.470Z,11.47
2022-10-16T14:23:33.381Z,11.46
2022-10-16T14:24:36.116Z,11.47
2022-10-16T14:25:38.142Z,11.44
2022-10-16T14:26:51.012Z,11.44
2022-10-16T14:29:15.192Z,11.45
2022-10-16T14:30:21.633Z,11.41
2022-10-16T14:31:33.408Z,11.41
2022-10-16T14:32:35.918Z,11.40
2022-10-16T14:33:38.364Z,11.37
2022-10-16T14:34:41.633Z,11.37
2022-10-16T14:35:45.479Z,11.35
2022-10-16T14:36:47.528Z,11.35
2022-10-16T14:37:54.065Z,11.33
2022-10-16T14:39:07.965Z,11.32
2022-10-16T14:40:16.134Z,11.33
2022-10-16T14:41:22.954Z,11.31
2022-10-16T14:42:26.919Z,11.28
2022-10-16T14:43:45.671Z,11.27
2022-10-16T14:44:54.489Z,11.28
2022-10-16T14:46:00.294Z,11.24
2022-10-16T14:47:11.805Z,11.24
2022-10-16T14:48:20.095Z,11.23
2022-10-16T14:49:23.439Z,11.20
2022-10-16T14:50:26.401Z,11.19
2022-10-16T14:51:28.558Z,11.24
2022-10-16T14:52:30.741Z,11.23
2022-10-16T14:53:32.904Z,11.22
2022-10-16T14:54:34.946Z,11.17
2022-10-16T14:55:38.444Z,11.17
2022-10-16T14:56:46.533Z,11.14
2022-10-16T14:57:49.087Z,11.13
2022-10-16T14:58:52.319Z,11.13
2022-10-16T14:59:54.546Z,11.10
2022-10-16T15:00:57.522Z,11.12
2022-10-16T15:02:07.980Z,11.10
2022-10-16T15:03:10.023Z,11.04
2022-10-16T15:04:13.457Z,11.05
2022-10-16T15:05:25.490Z,11.04
2022-10-16T15:06:27.637Z,10.99
2022-10-16T15:07:29.945Z,11.01
2022-10-16T15:08:32.191Z,11.01
2022-10-16T15:09:34.141Z,11.02
2022-10-16T15:10:41.896Z,11.02
2022-10-16T15:11:44.419Z,10.98
2022-10-16T15:12:46.994Z,10.99
2022-10-16T15:13:49.051Z,10.98
2022-10-16T15:14:51.116Z,10.94
2022-10-16T15:15:54.251Z,10.92
2022-10-16T15:16:56.196Z,10.88
2022-10-16T15:17:58.465Z,10.86
2022-10-16T15:19:01.631Z,10.85
2022-10-16T15:20:03.955Z,10.85
2022-10-16T15:21:06.667Z,10.78
2022-10-16T15:22:12.139Z,10.78
2022-10-16T15:23:16.863Z,10.76
2022-10-16T15:24:21.587Z,10.77
2022-10-16T15:25:26.765Z,10.76
2022-10-16T15:26:47.981Z,10.77
2022-10-16T15:27:50.097Z,10.72
2022-10-16T15:28:52.279Z,10.70
2022-10-16T15:29:55.221Z,10.70
2022-10-16T15:30:58.355Z,10.70
2022-10-16T15:32:00.420Z,10.70
2022-10-16T15:33:03.289Z,10.71
2022-10-16T15:34:07.104Z,10.69
2022-10-16T15:35:10.858Z,10.70
2022-10-16T15:36:12.993Z,10.71
2022-10-16T15:37:15.035Z,10.70
2022-10-16T15:38:18.798Z,10.74
2022-10-16T15:39:21.612Z,10.71
2022-10-16T15:40:24.066Z,10.73
2022-10-16T15:41:26.956Z,10.71
2022-10-16T15:42:29.845Z,10.70
2022-10-16T15:43:32.315Z,10.71
2022-10-16T15:44:34.808Z,10.69
2022-10-16T15:45:37.031Z,10.72
2022-10-16T15:46:39.239Z,10.69
2022-10-16T15:47:45.747Z,10.68
2022-10-16T15:48:52.776Z,10.66
2022-10-16T15:49:55.030Z,10.63
2022-10-16T15:50:57.810Z,10.63
2022-10-16T15:52:00.136Z,10.63
2022-10-16T15:53:04.062Z,10.64
2022-10-16T15:54:07.026Z,10.62
2022-10-16T15:55:11.421Z,10.65
2022-10-16T15:56:16.432Z,10.62
2022-10-16T15:57:19.436Z,10.61
2022-10-16T15:58:22.084Z,10.58
2022-10-16T15:59:34.250Z,10.62
2022-10-16T16:00:40.044Z,10.62
2022-10-16T16:01:42.321Z,10.62
2022-10-16T16:02:50.653Z,10.62
2022-10-16T16:03:56.665Z,10.59
2022-10-16T16:04:58.917Z,10.61
2022-10-16T16:06:09.336Z,10.53
2022-10-16T16:07:12.470Z,10.57
2022-10-16T16:08:17.952Z,10.53
2022-10-16T16:09:20.389Z,10.52
2022-10-16T16:10:23.435Z,10.52
2022-10-16T16:11:33.459Z,10.55
2022-10-16T16:12:36.177Z,10.52
2022-10-16T16:13:39.870Z,10.54
2022-10-16T16:14:42.365Z,10.49
2022-10-16T16:15:45.222Z,10.53
2022-10-16T16:16:48.703Z,10.49
2022-10-16T16:17:52.543Z,10.48
2022-10-16T16:18:58.191Z,10.47
2022-10-16T16:20:02.706Z,10.51
2022-10-16T16:21:14.075Z,10.45
2022-10-16T16:22:21.246Z,10.38
2022-10-16T16:23:27.128Z,10.37
2022-10-16T16:24:32.578Z,10.33
2022-10-16T16:25:38.255Z,10.34
2022-10-16T16:26:46.254Z,10.34
2022-10-16T16:27:52.556Z,10.35
2022-10-16T16:28:58.210Z,10.37
2022-10-16T16:30:06.697Z,10.33
2022-10-16T16:32:33.827Z,10.36
2022-10-16T16:33:38.928Z,10.32
2022-10-16T16:34:47.004Z,10.29
2022-10-16T16:36:01.321Z,10.24
2022-10-16T16:37:09.484Z,10.28
2022-10-16T16:38:21.564Z,10.28
2022-10-16T16:39:29.339Z,10.26
2022-10-16T16:40:39.290Z,10.32
2022-10-16T16:41:43.225Z,10.29
2022-10-16T16:42:47.730Z,10.26
2022-10-16T16:43:53.638Z,10.23
2022-10-16T16:45:21.969Z,10.23
2022-10-16T16:46:29.489Z,10.19
2022-10-16T16:47:36.293Z,10.16
2022-10-16T16:48:47.482Z,10.16
2022-10-16T16:49:51.731Z,10.14
2022-10-16T16:50:58.769Z,10.14
2022-10-16T16:52:07.001Z,10.13
2022-10-16T16:53:11.239Z,10.14
2022-10-16T16:54:29.885Z,10.08
2022-10-16T16:55:55.203Z,10.05
2022-10-16T16:56:57.838Z,10.06
2022-10-16T16:58:05.157Z,10.08